sensor_id;sensor_type;location;lat;lon;timestamp;P1;durP1;ratioP1;P2;durP2;ratioP2
21432;SDS011;18592;49.708;10.900;2023-12-04T00:01:32;16.90;;;11.40;;
21432;SDS011;18592;49.708;10.900;2023-12-04T00:03:34;16.47;;;11.17;;
21432;SDS011;18592;49.708;10.900;2023-12-04T00:05:43;19.20;;;11.33;;
21432;SDS011;18592;49.708;10.900;2023-12-04T00:07:45;19.07;;;10.63;;
21432;SDS011;18592;49.708;10.900;2023-12-04T00:09:47;18.43;;;10.80;;
21432;SDS011;18592;49.708;10.900;2023-12-04T00:11:48;17.50;;;10.83;;
21432;SDS011;18592;49.708;10.900;2023-12-04T00:13:50;16.57;;;11.03;;
21432;SDS011;18592;49.708;10.900;2023-12-04T00:15:51;16.40;;;10.83;;
21432;SDS011;18592;49.708;10.900;2023-12-04T00:17:53;16.57;;;10.53;;
21432;SDS011;18592;49.708;10.900;2023-12-04T00:19:55;14.43;;;9.90;;
21432;SDS011;18592;49.708;10.900;2023-12-04T00:21:56;14.80;;;10.20;;
21432;SDS011;18592;49.708;10.900;2023-12-04T00:23:58;17.30;;;10.57;;
21432;SDS011;18592;49.708;10.900;2023-12-04T00:25:59;16.20;;;10.57;;
21432;SDS011;18592;49.708;10.900;2023-12-04T00:28:01;15.87;;;10.77;;
21432;SDS011;18592;49.708;10.900;2023-12-04T00:30:03;17.07;;;11.47;;
21432;SDS011;18592;49.708;10.900;2023-12-04T00:32:05;17.43;;;11.13;;
21432;SDS011;18592;49.708;10.900;2023-12-04T00:34:07;17.70;;;10.83;;
21432;SDS011;18592;49.708;10.900;2023-12-04T00:36:09;18.53;;;11.03;;
21432;SDS011;18592;49.708;10.900;2023-12-04T00:38:11;15.80;;;10.30;;
21432;SDS011;18592;49.708;10.900;2023-12-04T00:40:12;15.87;;;10.20;;
21432;SDS011;18592;49.708;10.900;2023-12-04T00:42:14;16.47;;;10.43;;
21432;SDS011;18592;49.708;10.900;2023-12-04T00:44:15;16.00;;;10.27;;
21432;SDS011;18592;49.708;10.900;2023-12-04T00:46:17;15.77;;;10.07;;
21432;SDS011;18592;49.708;10.900;2023-12-04T00:48:18;16.80;;;10.50;;
21432;SDS011;18592;49.708;10.900;2023-12-04T00:50:20;16.17;;;10.87;;
21432;SDS011;18592;49.708;10.900;2023-12-04T00:52:21;15.60;;;10.47;;
21432;SDS011;18592;49.708;10.900;2023-12-04T00:54:23;14.93;;;9.97;;
21432;SDS011;18592;49.708;10.900;2023-12-04T00:56:25;16.13;;;9.87;;
21432;SDS011;18592;49.708;10.900;2023-12-04T00:58:26;14.90;;;9.93;;
21432;SDS011;18592;49.708;10.900;2023-12-04T01:00:28;14.67;;;9.27;;
21432;SDS011;18592;49.708;10.900;2023-12-04T01:02:30;16.93;;;10.73;;
21432;SDS011;18592;49.708;10.900;2023-12-04T01:04:31;16.70;;;10.10;;
21432;SDS011;18592;49.708;10.900;2023-12-04T01:06:33;15.70;;;10.37;;
21432;SDS011;18592;49.708;10.900;2023-12-04T01:08:34;13.83;;;9.47;;
21432;SDS011;18592;49.708;10.900;2023-12-04T01:10:36;15.27;;;9.20;;
21432;SDS011;18592;49.708;10.900;2023-12-04T01:12:37;15.80;;;10.27;;
21432;SDS011;18592;49.708;10.900;2023-12-04T01:14:39;16.87;;;10.00;;
21432;SDS011;18592;49.708;10.900;2023-12-04T01:16:41;14.57;;;9.37;;
21432;SDS011;18592;49.708;10.900;2023-12-04T01:18:43;13.93;;;9.67;;
21432;SDS011;18592;49.708;10.900;2023-12-04T01:20:44;13.97;;;9.67;;
21432;SDS011;18592;49.708;10.900;2023-12-04T01:22:46;15.13;;;10.07;;
21432;SDS011;18592;49.708;10.900;2023-12-04T01:24:47;14.33;;;9.63;;
21432;SDS011;18592;49.708;10.900;2023-12-04T01:26:49;14.87;;;8.97;;
21432;SDS011;18592;49.708;10.900;2023-12-04T01:28:50;14.27;;;9.10;;
21432;SDS011;18592;49.708;10.900;2023-12-04T01:30:52;13.90;;;9.37;;
21432;SDS011;18592;49.708;10.900;2023-12-04T01:32:53;13.03;;;8.90;;
21432;SDS011;18592;49.708;10.900;2023-12-04T01:34:55;12.57;;;8.63;;
21432;SDS011;18592;49.708;10.900;2023-12-04T01:36:56;14.03;;;9.23;;
21432;SDS011;18592;49.708;10.900;2023-12-04T01:38:58;13.87;;;9.33;;
21432;SDS011;18592;49.708;10.900;2023-12-04T01:40:59;14.10;;;9.33;;
21432;SDS011;18592;49.708;10.900;2023-12-04T01:43:01;13.77;;;9.27;;
21432;SDS011;18592;49.708;10.900;2023-12-04T01:45:03;14.13;;;9.50;;
21432;SDS011;18592;49.708;10.900;2023-12-04T01:47:05;14.83;;;9.50;;
21432;SDS011;18592;49.708;10.900;2023-12-04T01:49:08;14.97;;;9.30;;
21432;SDS011;18592;49.708;10.900;2023-12-04T01:51:10;15.03;;;9.43;;
21432;SDS011;18592;49.708;10.900;2023-12-04T01:53:13;13.23;;;8.77;;
21432;SDS011;18592;49.708;10.900;2023-12-04T01:55:16;12.90;;;8.70;;
21432;SDS011;18592;49.708;10.900;2023-12-04T01:57:18;14.10;;;9.23;;
21432;SDS011;18592;49.708;10.900;2023-12-04T01:59:20;12.93;;;8.70;;
21432;SDS011;18592;49.708;10.900;2023-12-04T02:01:22;14.17;;;9.00;;
21432;SDS011;18592;49.708;10.900;2023-12-04T02:03:25;12.57;;;9.00;;
21432;SDS011;18592;49.708;10.900;2023-12-04T02:05:27;13.10;;;9.10;;
21432;SDS011;18592;49.708;10.900;2023-12-04T02:07:31;13.70;;;8.77;;
21432;SDS011;18592;49.708;10.900;2023-12-04T02:09:33;14.13;;;8.97;;
21432;SDS011;18592;49.708;10.900;2023-12-04T02:11:34;12.93;;;8.70;;
21432;SDS011;18592;49.708;10.900;2023-12-04T02:13:36;13.80;;;9.47;;
21432;SDS011;18592;49.708;10.900;2023-12-04T02:15:37;15.50;;;9.80;;
21432;SDS011;18592;49.708;10.900;2023-12-04T02:17:39;16.90;;;9.87;;
21432;SDS011;18592;49.708;10.900;2023-12-04T02:19:42;15.33;;;9.57;;
21432;SDS011;18592;49.708;10.900;2023-12-04T02:21:44;14.93;;;10.13;;
21432;SDS011;18592;49.708;10.900;2023-12-04T02:23:49;14.73;;;9.57;;
21432;SDS011;18592;49.708;10.900;2023-12-04T02:25:52;13.17;;;9.00;;
21432;SDS011;18592;49.708;10.900;2023-12-04T02:28:01;13.43;;;9.40;;
21432;SDS011;18592;49.708;10.900;2023-12-04T02:30:07;15.50;;;9.23;;
21432;SDS011;18592;49.708;10.900;2023-12-04T02:32:14;16.43;;;10.00;;
21432;SDS011;18592;49.708;10.900;2023-12-04T02:34:19;15.83;;;9.83;;
21432;SDS011;18592;49.708;10.900;2023-12-04T02:36:22;15.80;;;9.70;;
21432;SDS011;18592;49.708;10.900;2023-12-04T02:38:25;13.50;;;9.13;;
21432;SDS011;18592;49.708;10.900;2023-12-04T02:40:28;14.47;;;9.40;;
21432;SDS011;18592;49.708;10.900;2023-12-04T02:42:30;14.40;;;9.43;;
21432;SDS011;18592;49.708;10.900;2023-12-04T02:44:32;14.67;;;9.30;;
21432;SDS011;18592;49.708;10.900;2023-12-04T02:46:34;14.53;;;9.60;;
21432;SDS011;18592;49.708;10.900;2023-12-04T02:48:36;12.90;;;8.80;;
21432;SDS011;18592;49.708;10.900;2023-12-04T02:50:37;14.47;;;9.20;;
21432;SDS011;18592;49.708;10.900;2023-12-04T02:52:39;12.50;;;8.80;;
21432;SDS011;18592;49.708;10.900;2023-12-04T02:54:50;13.17;;;8.97;;
21432;SDS011;18592;49.708;10.900;2023-12-04T02:56:51;15.43;;;9.53;;
21432;SDS011;18592;49.708;10.900;2023-12-04T02:58:53;14.43;;;9.00;;
21432;SDS011;18592;49.708;10.900;2023-12-04T03:00:54;14.97;;;9.60;;
21432;SDS011;18592;49.708;10.900;2023-12-04T03:02:56;14.63;;;9.83;;
21432;SDS011;18592;49.708;10.900;2023-12-04T03:04:57;13.43;;;8.90;;
21432;SDS011;18592;49.708;10.900;2023-12-04T03:06:59;13.63;;;9.80;;
21432;SDS011;18592;49.708;10.900;2023-12-04T03:09:01;14.20;;;9.30;;
21432;SDS011;18592;49.708;10.900;2023-12-04T03:11:02;13.93;;;9.03;;
21432;SDS011;18592;49.708;10.900;2023-12-04T03:13:04;14.03;;;9.30;;
21432;SDS011;18592;49.708;10.900;2023-12-04T03:15:06;14.30;;;9.60;;
21432;SDS011;18592;49.708;10.900;2023-12-04T03:17:08;14.17;;;9.40;;
21432;SDS011;18592;49.708;10.900;2023-12-04T03:19:09;15.27;;;9.17;;
21432;SDS011;18592;49.708;10.900;2023-12-04T03:21:11;13.90;;;9.00;;
21432;SDS011;18592;49.708;10.900;2023-12-04T03:23:13;13.87;;;9.50;;
21432;SDS011;18592;49.708;10.900;2023-12-04T03:25:14;13.97;;;8.80;;
21432;SDS011;18592;49.708;10.900;2023-12-04T03:27:16;13.47;;;9.33;;
21432;SDS011;18592;49.708;10.900;2023-12-04T03:29:17;12.37;;;8.37;;
21432;SDS011;18592;49.708;10.900;2023-12-04T03:31:19;13.90;;;9.03;;
21432;SDS011;18592;49.708;10.900;2023-12-04T03:33:20;12.67;;;8.87;;
21432;SDS011;18592;49.708;10.900;2023-12-04T03:35:22;13.53;;;8.80;;
21432;SDS011;18592;49.708;10.900;2023-12-04T03:37:23;15.17;;;9.37;;
21432;SDS011;18592;49.708;10.900;2023-12-04T03:39:25;14.50;;;9.10;;
21432;SDS011;18592;49.708;10.900;2023-12-04T03:41:27;12.60;;;8.93;;
21432;SDS011;18592;49.708;10.900;2023-12-04T03:43:28;13.83;;;9.27;;
21432;SDS011;18592;49.708;10.900;2023-12-04T03:45:30;14.33;;;9.27;;
21432;SDS011;18592;49.708;10.900;2023-12-04T03:47:31;12.50;;;8.60;;
21432;SDS011;18592;49.708;10.900;2023-12-04T03:49:33;12.80;;;8.53;;
21432;SDS011;18592;49.708;10.900;2023-12-04T03:51:34;13.80;;;8.67;;
21432;SDS011;18592;49.708;10.900;2023-12-04T03:53:36;11.77;;;8.33;;
21432;SDS011;18592;49.708;10.900;2023-12-04T03:55:37;15.73;;;9.53;;
21432;SDS011;18592;49.708;10.900;2023-12-04T03:57:39;13.90;;;9.10;;
21432;SDS011;18592;49.708;10.900;2023-12-04T03:59:40;13.27;;;9.07;;
21432;SDS011;18592;49.708;10.900;2023-12-04T04:01:42;14.73;;;9.13;;
21432;SDS011;18592;49.708;10.900;2023-12-04T04:03:43;13.73;;;9.57;;
21432;SDS011;18592;49.708;10.900;2023-12-04T04:05:47;13.60;;;9.23;;
21432;SDS011;18592;49.708;10.900;2023-12-04T04:07:49;12.53;;;8.53;;
21432;SDS011;18592;49.708;10.900;2023-12-04T04:09:50;16.03;;;9.57;;
21432;SDS011;18592;49.708;10.900;2023-12-04T04:11:52;15.73;;;9.77;;
21432;SDS011;18592;49.708;10.900;2023-12-04T04:13:53;15.43;;;10.03;;
21432;SDS011;18592;49.708;10.900;2023-12-04T04:15:55;14.57;;;9.73;;
21432;SDS011;18592;49.708;10.900;2023-12-04T04:17:56;12.90;;;8.73;;
21432;SDS011;18592;49.708;10.900;2023-12-04T04:19:58;13.77;;;9.37;;
21432;SDS011;18592;49.708;10.900;2023-12-04T04:21:59;16.10;;;9.77;;
21432;SDS011;18592;49.708;10.900;2023-12-04T04:24:01;14.07;;;9.47;;
21432;SDS011;18592;49.708;10.900;2023-12-04T04:26:02;16.47;;;10.50;;
21432;SDS011;18592;49.708;10.900;2023-12-04T04:28:04;16.43;;;10.53;;
21432;SDS011;18592;49.708;10.900;2023-12-04T04:30:06;15.53;;;10.23;;
21432;SDS011;18592;49.708;10.900;2023-12-04T04:32:07;15.00;;;9.57;;
21432;SDS011;18592;49.708;10.900;2023-12-04T04:34:12;15.63;;;10.40;;
21432;SDS011;18592;49.708;10.900;2023-12-04T04:36:13;17.00;;;11.10;;
21432;SDS011;18592;49.708;10.900;2023-12-04T04:38:15;16.90;;;10.37;;
21432;SDS011;18592;49.708;10.900;2023-12-04T04:40:17;15.47;;;9.97;;
21432;SDS011;18592;49.708;10.900;2023-12-04T04:42:18;14.53;;;9.93;;
21432;SDS011;18592;49.708;10.900;2023-12-04T04:44:20;13.63;;;9.63;;
21432;SDS011;18592;49.708;10.900;2023-12-04T04:46:23;15.13;;;9.70;;
21432;SDS011;18592;49.708;10.900;2023-12-04T04:48:26;15.30;;;10.03;;
21432;SDS011;18592;49.708;10.900;2023-12-04T04:50:28;16.23;;;10.30;;
21432;SDS011;18592;49.708;10.900;2023-12-04T04:52:29;15.57;;;10.03;;
21432;SDS011;18592;49.708;10.900;2023-12-04T04:54:33;16.90;;;10.63;;
21432;SDS011;18592;49.708;10.900;2023-12-04T04:56:34;16.90;;;10.13;;
21432;SDS011;18592;49.708;10.900;2023-12-04T04:58:36;18.03;;;11.73;;
21432;SDS011;18592;49.708;10.900;2023-12-04T05:00:37;20.67;;;12.10;;
21432;SDS011;18592;49.708;10.900;2023-12-04T05:02:39;20.23;;;11.93;;
21432;SDS011;18592;49.708;10.900;2023-12-04T05:04:41;18.70;;;12.00;;
21432;SDS011;18592;49.708;10.900;2023-12-04T05:06:42;17.87;;;11.83;;
21432;SDS011;18592;49.708;10.900;2023-12-04T05:08:44;18.63;;;11.80;;
21432;SDS011;18592;49.708;10.900;2023-12-04T05:10:45;18.30;;;11.07;;
21432;SDS011;18592;49.708;10.900;2023-12-04T05:12:47;17.33;;;11.23;;
21432;SDS011;18592;49.708;10.900;2023-12-04T05:14:48;18.40;;;11.33;;
21432;SDS011;18592;49.708;10.900;2023-12-04T05:16:50;16.67;;;10.20;;
21432;SDS011;18592;49.708;10.900;2023-12-04T05:18:51;16.57;;;10.47;;
21432;SDS011;18592;49.708;10.900;2023-12-04T05:20:53;16.00;;;10.80;;
21432;SDS011;18592;49.708;10.900;2023-12-04T05:22:55;17.07;;;10.70;;
21432;SDS011;18592;49.708;10.900;2023-12-04T05:24:57;17.97;;;11.33;;
21432;SDS011;18592;49.708;10.900;2023-12-04T05:26:59;17.33;;;10.97;;
21432;SDS011;18592;49.708;10.900;2023-12-04T05:29:00;18.27;;;11.17;;
21432;SDS011;18592;49.708;10.900;2023-12-04T05:31:02;16.60;;;10.13;;
21432;SDS011;18592;49.708;10.900;2023-12-04T05:33:04;16.60;;;10.30;;
21432;SDS011;18592;49.708;10.900;2023-12-04T05:35:05;17.43;;;10.40;;
21432;SDS011;18592;49.708;10.900;2023-12-04T05:37:07;17.73;;;10.90;;
21432;SDS011;18592;49.708;10.900;2023-12-04T05:39:09;15.60;;;10.50;;
21432;SDS011;18592;49.708;10.900;2023-12-04T05:41:11;16.73;;;10.93;;
21432;SDS011;18592;49.708;10.900;2023-12-04T05:43:12;17.50;;;11.03;;
21432;SDS011;18592;49.708;10.900;2023-12-04T05:45:14;17.03;;;11.00;;
21432;SDS011;18592;49.708;10.900;2023-12-04T05:47:16;16.13;;;10.60;;
21432;SDS011;18592;49.708;10.900;2023-12-04T05:49:17;18.67;;;12.07;;
21432;SDS011;18592;49.708;10.900;2023-12-04T05:51:19;21.23;;;12.77;;
21432;SDS011;18592;49.708;10.900;2023-12-04T05:53:20;21.93;;;13.40;;
21432;SDS011;18592;49.708;10.900;2023-12-04T05:55:26;22.57;;;14.07;;
21432;SDS011;18592;49.708;10.900;2023-12-04T05:57:28;27.13;;;15.80;;
21432;SDS011;18592;49.708;10.900;2023-12-04T05:59:29;26.17;;;15.27;;
21432;SDS011;18592;49.708;10.900;2023-12-04T06:01:31;29.67;;;16.60;;
21432;SDS011;18592;49.708;10.900;2023-12-04T06:03:32;25.50;;;16.23;;
21432;SDS011;18592;49.708;10.900;2023-12-04T06:05:34;25.53;;;15.33;;
21432;SDS011;18592;49.708;10.900;2023-12-04T06:07:36;22.63;;;14.13;;
21432;SDS011;18592;49.708;10.900;2023-12-04T06:09:38;21.93;;;13.57;;
21432;SDS011;18592;49.708;10.900;2023-12-04T06:11:40;22.80;;;13.83;;
21432;SDS011;18592;49.708;10.900;2023-12-04T06:13:43;20.20;;;12.73;;
21432;SDS011;18592;49.708;10.900;2023-12-04T06:15:45;19.47;;;12.37;;
21432;SDS011;18592;49.708;10.900;2023-12-04T06:17:46;18.47;;;12.57;;
21432;SDS011;18592;49.708;10.900;2023-12-04T06:19:54;16.77;;;10.83;;
21432;SDS011;18592;49.708;10.900;2023-12-04T06:21:56;18.27;;;11.53;;
21432;SDS011;18592;49.708;10.900;2023-12-04T06:23:57;15.87;;;10.87;;
21432;SDS011;18592;49.708;10.900;2023-12-04T06:25:59;16.17;;;10.53;;
21432;SDS011;18592;49.708;10.900;2023-12-04T06:28:01;15.43;;;10.27;;
21432;SDS011;18592;49.708;10.900;2023-12-04T06:30:03;15.40;;;10.23;;
21432;SDS011;18592;49.708;10.900;2023-12-04T06:32:06;14.20;;;9.70;;
21432;SDS011;18592;49.708;10.900;2023-12-04T06:34:08;15.63;;;10.70;;
21432;SDS011;18592;49.708;10.900;2023-12-04T06:36:10;14.47;;;9.80;;
21432;SDS011;18592;49.708;10.900;2023-12-04T06:38:14;14.63;;;9.80;;
21432;SDS011;18592;49.708;10.900;2023-12-04T06:40:17;12.23;;;8.57;;
21432;SDS011;18592;49.708;10.900;2023-12-04T06:42:19;13.43;;;9.47;;
21432;SDS011;18592;49.708;10.900;2023-12-04T06:44:21;13.50;;;9.37;;
21432;SDS011;18592;49.708;10.900;2023-12-04T06:46:23;13.73;;;9.23;;
21432;SDS011;18592;49.708;10.900;2023-12-04T06:48:25;14.40;;;8.87;;
21432;SDS011;18592;49.708;10.900;2023-12-04T06:50:27;13.87;;;9.23;;
21432;SDS011;18592;49.708;10.900;2023-12-04T06:52:28;14.03;;;9.13;;
21432;SDS011;18592;49.708;10.900;2023-12-04T06:54:30;12.20;;;8.47;;
21432;SDS011;18592;49.708;10.900;2023-12-04T06:56:32;13.60;;;9.33;;
21432;SDS011;18592;49.708;10.900;2023-12-04T06:58:33;14.10;;;9.47;;
21432;SDS011;18592;49.708;10.900;2023-12-04T07:00:35;14.97;;;9.80;;
21432;SDS011;18592;49.708;10.900;2023-12-04T07:02:36;16.40;;;9.90;;
21432;SDS011;18592;49.708;10.900;2023-12-04T07:04:38;17.00;;;10.27;;
21432;SDS011;18592;49.708;10.900;2023-12-04T07:06:41;19.20;;;11.90;;
21432;SDS011;18592;49.708;10.900;2023-12-04T07:08:44;19.97;;;11.90;;
21432;SDS011;18592;49.708;10.900;2023-12-04T07:10:45;19.97;;;12.20;;
21432;SDS011;18592;49.708;10.900;2023-12-04T07:12:47;21.33;;;13.53;;
21432;SDS011;18592;49.708;10.900;2023-12-04T07:14:48;20.90;;;13.13;;
21432;SDS011;18592;49.708;10.900;2023-12-04T07:16:50;17.57;;;10.90;;
21432;SDS011;18592;49.708;10.900;2023-12-04T07:18:51;18.83;;;11.60;;
21432;SDS011;18592;49.708;10.900;2023-12-04T07:20:53;17.73;;;11.20;;
21432;SDS011;18592;49.708;10.900;2023-12-04T07:22:54;17.83;;;11.47;;
21432;SDS011;18592;49.708;10.900;2023-12-04T07:24:56;15.23;;;9.73;;
21432;SDS011;18592;49.708;10.900;2023-12-04T07:26:58;15.83;;;10.20;;
21432;SDS011;18592;49.708;10.900;2023-12-04T07:29:00;15.07;;;10.20;;
21432;SDS011;18592;49.708;10.900;2023-12-04T07:31:05;15.20;;;10.13;;
21432;SDS011;18592;49.708;10.900;2023-12-04T07:33:07;15.70;;;10.63;;
21432;SDS011;18592;49.708;10.900;2023-12-04T07:35:11;16.17;;;10.80;;
21432;SDS011;18592;49.708;10.900;2023-12-04T07:37:12;15.47;;;10.77;;
21432;SDS011;18592;49.708;10.900;2023-12-04T07:39:14;15.17;;;10.37;;
21432;SDS011;18592;49.708;10.900;2023-12-04T07:41:17;16.30;;;11.17;;
21432;SDS011;18592;49.708;10.900;2023-12-04T07:43:19;16.90;;;10.93;;
21432;SDS011;18592;49.708;10.900;2023-12-04T07:45:23;16.53;;;10.80;;
21432;SDS011;18592;49.708;10.900;2023-12-04T07:47:28;18.07;;;11.93;;
21432;SDS011;18592;49.708;10.900;2023-12-04T07:49:31;19.57;;;12.13;;
21432;SDS011;18592;49.708;10.900;2023-12-04T07:51:35;19.00;;;11.97;;
21432;SDS011;18592;49.708;10.900;2023-12-04T07:53:37;18.77;;;11.80;;
21432;SDS011;18592;49.708;10.900;2023-12-04T07:55:38;22.80;;;13.13;;
21432;SDS011;18592;49.708;10.900;2023-12-04T07:57:40;24.63;;;14.60;;
21432;SDS011;18592;49.708;10.900;2023-12-04T07:59:42;24.50;;;14.23;;
21432;SDS011;18592;49.708;10.900;2023-12-04T08:01:44;20.90;;;13.67;;
21432;SDS011;18592;49.708;10.900;2023-12-04T08:03:46;27.77;;;14.13;;
21432;SDS011;18592;49.708;10.900;2023-12-04T08:05:48;26.40;;;16.13;;
21432;SDS011;18592;49.708;10.900;2023-12-04T08:07:52;29.00;;;16.90;;
21432;SDS011;18592;49.708;10.900;2023-12-04T08:09:54;31.83;;;17.97;;
21432;SDS011;18592;49.708;10.900;2023-12-04T08:11:55;29.73;;;17.37;;
21432;SDS011;18592;49.708;10.900;2023-12-04T08:13:58;26.10;;;16.47;;
21432;SDS011;18592;49.708;10.900;2023-12-04T08:15:59;28.20;;;16.40;;
21432;SDS011;18592;49.708;10.900;2023-12-04T08:18:02;26.70;;;16.43;;
21432;SDS011;18592;49.708;10.900;2023-12-04T08:20:07;25.70;;;15.37;;
21432;SDS011;18592;49.708;10.900;2023-12-04T08:22:09;25.60;;;15.00;;
21432;SDS011;18592;49.708;10.900;2023-12-04T08:24:13;23.80;;;15.40;;
21432;SDS011;18592;49.708;10.900;2023-12-04T08:26:20;22.70;;;15.00;;
21432;SDS011;18592;49.708;10.900;2023-12-04T08:28:26;27.67;;;16.17;;
21432;SDS011;18592;49.708;10.900;2023-12-04T08:30:30;24.07;;;15.27;;
21432;SDS011;18592;49.708;10.900;2023-12-04T08:32:32;26.10;;;16.43;;
21432;SDS011;18592;49.708;10.900;2023-12-04T08:34:36;24.90;;;16.53;;
21432;SDS011;18592;49.708;10.900;2023-12-04T08:36:38;24.47;;;16.03;;
21432;SDS011;18592;49.708;10.900;2023-12-04T08:38:47;22.67;;;14.47;;
21432;SDS011;18592;49.708;10.900;2023-12-04T08:40:48;19.00;;;14.30;;
21432;SDS011;18592;49.708;10.900;2023-12-04T08:42:50;21.13;;;14.43;;
21432;SDS011;18592;49.708;10.900;2023-12-04T08:44:52;19.00;;;12.87;;
21432;SDS011;18592;49.708;10.900;2023-12-04T08:46:54;17.40;;;12.50;;
21432;SDS011;18592;49.708;10.900;2023-12-04T08:48:55;19.50;;;12.77;;
21432;SDS011;18592;49.708;10.900;2023-12-04T08:50:57;16.40;;;11.73;;
21432;SDS011;18592;49.708;10.900;2023-12-04T08:52:59;18.60;;;12.23;;
21432;SDS011;18592;49.708;10.900;2023-12-04T08:55:01;15.37;;;11.30;;
21432;SDS011;18592;49.708;10.900;2023-12-04T08:57:03;17.17;;;12.07;;
21432;SDS011;18592;49.708;10.900;2023-12-04T08:59:07;14.90;;;11.10;;
21432;SDS011;18592;49.708;10.900;2023-12-04T09:01:08;15.80;;;11.77;;
21432;SDS011;18592;49.708;10.900;2023-12-04T09:03:10;18.03;;;11.73;;
21432;SDS011;18592;49.708;10.900;2023-12-04T09:05:22;14.73;;;10.87;;
21432;SDS011;18592;49.708;10.900;2023-12-04T09:07:24;16.63;;;11.40;;
21432;SDS011;18592;49.708;10.900;2023-12-04T09:09:46;16.03;;;11.30;;
21432;SDS011;18592;49.708;10.900;2023-12-04T09:11:48;16.93;;;11.03;;
21432;SDS011;18592;49.708;10.900;2023-12-04T09:13:50;14.00;;;10.27;;
21432;SDS011;18592;49.708;10.900;2023-12-04T09:15:51;14.97;;;10.43;;
21432;SDS011;18592;49.708;10.900;2023-12-04T09:17:53;16.03;;;10.93;;
21432;SDS011;18592;49.708;10.900;2023-12-04T09:19:55;14.67;;;10.60;;
21432;SDS011;18592;49.708;10.900;2023-12-04T09:21:57;15.80;;;10.47;;
21432;SDS011;18592;49.708;10.900;2023-12-04T09:24:13;15.83;;;10.43;;
21432;SDS011;18592;49.708;10.900;2023-12-04T09:26:16;13.37;;;9.23;;
21432;SDS011;18592;49.708;10.900;2023-12-04T09:28:18;12.23;;;8.97;;
21432;SDS011;18592;49.708;10.900;2023-12-04T09:30:19;11.77;;;8.53;;
21432;SDS011;18592;49.708;10.900;2023-12-04T09:32:21;13.43;;;8.23;;
21432;SDS011;18592;49.708;10.900;2023-12-04T09:34:23;10.87;;;7.60;;
21432;SDS011;18592;49.708;10.900;2023-12-04T09:36:24;11.93;;;7.53;;
21432;SDS011;18592;49.708;10.900;2023-12-04T09:38:26;11.83;;;7.30;;
21432;SDS011;18592;49.708;10.900;2023-12-04T09:40:28;16.77;;;8.03;;
21432;SDS011;18592;49.708;10.900;2023-12-04T09:42:30;18.13;;;8.50;;
21432;SDS011;18592;49.708;10.900;2023-12-04T09:44:32;16.93;;;7.83;;
21432;SDS011;18592;49.708;10.900;2023-12-04T09:46:34;12.57;;;7.70;;
21432;SDS011;18592;49.708;10.900;2023-12-04T09:48:36;16.53;;;8.23;;
21432;SDS011;18592;49.708;10.900;2023-12-04T09:50:40;19.37;;;8.83;;
21432;SDS011;18592;49.708;10.900;2023-12-04T09:52:42;19.40;;;8.63;;
21432;SDS011;18592;49.708;10.900;2023-12-04T09:54:44;14.37;;;8.97;;
21432;SDS011;18592;49.708;10.900;2023-12-04T09:56:45;17.43;;;9.10;;
21432;SDS011;18592;49.708;10.900;2023-12-04T09:58:48;18.87;;;8.80;;
21432;SDS011;18592;49.708;10.900;2023-12-04T10:00:58;18.83;;;9.63;;
21432;SDS011;18592;49.708;10.900;2023-12-04T10:03:01;18.57;;;9.97;;
21432;SDS011;18592;49.708;10.900;2023-12-04T10:05:05;23.30;;;10.20;;
21432;SDS011;18592;49.708;10.900;2023-12-04T10:07:08;19.70;;;9.30;;
21432;SDS011;18592;49.708;10.900;2023-12-04T10:09:09;22.10;;;9.03;;
21432;SDS011;18592;49.708;10.900;2023-12-04T10:11:12;23.03;;;11.17;;
21432;SDS011;18592;49.708;10.900;2023-12-04T10:13:14;20.33;;;9.77;;
21432;SDS011;18592;49.708;10.900;2023-12-04T10:15:48;21.10;;;9.00;;
21432;SDS011;18592;49.708;10.900;2023-12-04T10:17:51;22.97;;;10.07;;
21432;SDS011;18592;49.708;10.900;2023-12-04T10:20:03;21.30;;;10.13;;
21432;SDS011;18592;49.708;10.900;2023-12-04T10:22:12;19.13;;;9.53;;
21432;SDS011;18592;49.708;10.900;2023-12-04T10:26:32;19.07;;;9.80;;
21432;SDS011;18592;49.708;10.900;2023-12-04T10:28:34;18.27;;;10.03;;
21432;SDS011;18592;49.708;10.900;2023-12-04T10:30:36;17.73;;;9.17;;
21432;SDS011;18592;49.708;10.900;2023-12-04T10:32:39;27.93;;;9.87;;
21432;SDS011;18592;49.708;10.900;2023-12-04T10:34:43;16.07;;;9.50;;
21432;SDS011;18592;49.708;10.900;2023-12-04T10:36:45;16.13;;;9.23;;
21432;SDS011;18592;49.708;10.900;2023-12-04T10:38:57;16.73;;;9.10;;
21432;SDS011;18592;49.708;10.900;2023-12-04T10:41:11;14.50;;;8.37;;
21432;SDS011;18592;49.708;10.900;2023-12-04T10:45:19;11.50;;;7.47;;
21432;SDS011;18592;49.708;10.900;2023-12-04T10:47:24;11.43;;;7.40;;
21432;SDS011;18592;49.708;10.900;2023-12-04T10:49:27;12.13;;;7.23;;
21432;SDS011;18592;49.708;10.900;2023-12-04T10:51:33;10.80;;;7.17;;
21432;SDS011;18592;49.708;10.900;2023-12-04T10:53:35;12.17;;;7.63;;
21432;SDS011;18592;49.708;10.900;2023-12-04T10:55:37;11.33;;;6.90;;
21432;SDS011;18592;49.708;10.900;2023-12-04T10:57:42;9.10;;;5.97;;
21432;SDS011;18592;49.708;10.900;2023-12-04T10:59:49;9.10;;;6.50;;
21432;SDS011;18592;49.708;10.900;2023-12-04T11:01:57;9.87;;;6.50;;
21432;SDS011;18592;49.708;10.900;2023-12-04T11:04:02;11.37;;;6.70;;
21432;SDS011;18592;49.708;10.900;2023-12-04T11:06:09;12.53;;;7.33;;
21432;SDS011;18592;49.708;10.900;2023-12-04T11:08:13;12.93;;;8.03;;
21432;SDS011;18592;49.708;10.900;2023-12-04T11:10:22;16.77;;;8.70;;
21432;SDS011;18592;49.708;10.900;2023-12-04T11:12:27;15.33;;;7.93;;
21432;SDS011;18592;49.708;10.900;2023-12-04T11:14:37;13.43;;;8.13;;
21432;SDS011;18592;49.708;10.900;2023-12-04T11:16:47;12.80;;;7.13;;
21432;SDS011;18592;49.708;10.900;2023-12-04T11:18:56;10.23;;;6.30;;
21432;SDS011;18592;49.708;10.900;2023-12-04T11:21:11;10.57;;;6.77;;
21432;SDS011;18592;49.708;10.900;2023-12-04T11:23:14;11.60;;;6.50;;
21432;SDS011;18592;49.708;10.900;2023-12-04T11:25:18;10.60;;;6.90;;
21432;SDS011;18592;49.708;10.900;2023-12-04T11:27:21;11.00;;;6.93;;
21432;SDS011;18592;49.708;10.900;2023-12-04T11:29:24;9.60;;;5.87;;
21432;SDS011;18592;49.708;10.900;2023-12-04T11:31:26;7.97;;;6.00;;
21432;SDS011;18592;49.708;10.900;2023-12-04T11:33:27;8.87;;;6.00;;
21432;SDS011;18592;49.708;10.900;2023-12-04T11:35:29;8.93;;;5.80;;
21432;SDS011;18592;49.708;10.900;2023-12-04T11:37:31;6.30;;;5.23;;
21432;SDS011;18592;49.708;10.900;2023-12-04T11:39:33;8.93;;;6.00;;
21432;SDS011;18592;49.708;10.900;2023-12-04T11:41:36;8.03;;;5.70;;
21432;SDS011;18592;49.708;10.900;2023-12-04T11:43:39;8.07;;;5.70;;
21432;SDS011;18592;49.708;10.900;2023-12-04T11:45:43;6.90;;;4.90;;
21432;SDS011;18592;49.708;10.900;2023-12-04T11:47:55;7.20;;;5.10;;
21432;SDS011;18592;49.708;10.900;2023-12-04T11:49:58;8.40;;;6.40;;
21432;SDS011;18592;49.708;10.900;2023-12-04T11:52:09;7.60;;;5.20;;
21432;SDS011;18592;49.708;10.900;2023-12-04T11:54:13;7.90;;;5.23;;
21432;SDS011;18592;49.708;10.900;2023-12-04T11:56:16;7.93;;;5.07;;
21432;SDS011;18592;49.708;10.900;2023-12-04T11:58:18;8.03;;;5.70;;